Terminal Aerodrome Forecast
Issued by NWS

Current Version | Previous Version | Graphics & Text | Print | Product List | Glossary On
Versions: 1 2 3 4 5 6 7 8 9 10 11 12 13 14 15 16 17 18 19 20 21 22 23 24 25 26
816
FTUS41 KILN 180926 AAB
TAFLUK
TAF AMD
KLUK 180926Z 1809/1906 00000KT 1 1/2SM BR FEW050 OVC250
     FM181300 20004KT P6SM BKN090
     FM181800 20004KT P6SM VCSH SCT045 BKN090
     FM190000 00000KT P6SM BKN090=

USA.gov is the U.S. government's official web portal to all federal, state and local government web resources and services.